logo
Rechercher aéroport 
image banner adimage banner adimage banner ad
image banner ad

FLIJ - Inja

Situé à Chiundaponde, Zambia

ICAO - , IATA -

Données fournies par Airmate  

Information générale

Coordonnées: S12°15'37" E30°35'8"
Élévation : 4004 feet MSL.
Variation magnétique : -3° East
Voir autres Aéroports à Northern Province

Données opérationnelles

Special qualification required
Heure actuelle UTC:
Heure actuelle locale:
Météo à : - ( 0 km )
METAR: KLBE 242047Z 30010G17KT 10SM SCT055 BKN075 25/13 A2995
Voir NOTAMs / SUP AIP / TFR affectant cet aéroport [VIEW]
Fréquences de communication: [VIEW]

Pistes:

Identifiant RWYQFULongueur (ft)Largeur (ft)SurfaceLDA (ft)
0763°345691GRAS
25243°345691GRAS

Coordonnées de l'aéroport

Adresse: Chiundaponde Zambia

Vue satellite de FLIJ